Agua Linda, Arizona
Current Conditions -  °F | °C
As of 10:54 PM on Sunday 21 Dec 2014 (Local Time) from KOLS Reporting Station
Clear Clear  
Wind Chill: 42°   Ceiling: Unl
Heat Index: 42°   Visibility: 10mi
Dew Point: 34°   Wind: 0mph
Humidity: 73%   Direction: NA
Pressure: 30.07"   Gusts: NA
Location:  31.6134°N, 110.959°W
Report Text: KOLS 220554Z AUTO 00000KT 10SM CLR 06/01 A3007 RMK AO2 SLP157 T00560011 10161 20056 58002
Loading
Personal Weather Stations






























Interactive Weather Map New forecast layout! Learn more

10-Day Weather Forecast

Advertisements
Track Severe Weather on mobile